sensor_id;sensor_type;location;lat;lon;timestamp;P1;durP1;ratioP1;P2;durP2;ratioP2
34978;SDS011;21185;50.978;13.720;2022-11-15T00:00:15;22.75;;;9.68;;
34978;SDS011;21185;50.978;13.720;2022-11-15T00:05:35;24.30;;;10.50;;
34978;SDS011;21185;50.978;13.720;2022-11-15T00:10:57;26.55;;;10.18;;
34978;SDS011;21185;50.978;13.720;2022-11-15T00:16:18;28.17;;;13.68;;
34978;SDS011;21185;50.978;13.720;2022-11-15T00:21:38;28.80;;;12.23;;
34978;SDS011;21185;50.978;13.720;2022-11-15T00:26:59;27.95;;;12.02;;
34978;SDS011;21185;50.978;13.720;2022-11-15T00:32:20;27.08;;;11.45;;
34978;SDS011;21185;50.978;13.720;2022-11-15T00:37:40;28.05;;;12.20;;
34978;SDS011;21185;50.978;13.720;2022-11-15T00:43:01;27.52;;;11.80;;
34978;SDS011;21185;50.978;13.720;2022-11-15T00:48:21;25.98;;;12.10;;
34978;SDS011;21185;50.978;13.720;2022-11-15T00:53:42;28.05;;;12.65;;
34978;SDS011;21185;50.978;13.720;2022-11-15T00:59:02;27.33;;;11.75;;
34978;SDS011;21185;50.978;13.720;2022-11-15T01:04:23;29.02;;;12.88;;
34978;SDS011;21185;50.978;13.720;2022-11-15T01:09:43;24.45;;;10.48;;
34978;SDS011;21185;50.978;13.720;2022-11-15T01:15:04;22.15;;;9.32;;
34978;SDS011;21185;50.978;13.720;2022-11-15T01:20:25;22.80;;;8.95;;
34978;SDS011;21185;50.978;13.720;2022-11-15T01:25:45;24.05;;;9.20;;
34978;SDS011;21185;50.978;13.720;2022-11-15T01:31:07;18.30;;;8.80;;
34978;SDS011;21185;50.978;13.720;2022-11-15T01:36:32;23.35;;;9.93;;
34978;SDS011;21185;50.978;13.720;2022-11-15T01:41:52;21.75;;;10.02;;
34978;SDS011;21185;50.978;13.720;2022-11-15T01:47:17;22.65;;;9.23;;
34978;SDS011;21185;50.978;13.720;2022-11-15T01:52:41;22.10;;;8.73;;
34978;SDS011;21185;50.978;13.720;2022-11-15T01:58:03;18.33;;;7.45;;
34978;SDS011;21185;50.978;13.720;2022-11-15T02:03:26;19.63;;;7.43;;
34978;SDS011;21185;50.978;13.720;2022-11-15T02:08:56;23.15;;;8.43;;
34978;SDS011;21185;50.978;13.720;2022-11-15T02:14:18;16.70;;;7.05;;
34978;SDS011;21185;50.978;13.720;2022-11-15T02:25:41;18.60;;;8.38;;
34978;SDS011;21185;50.978;13.720;2022-11-15T02:42:10;18.63;;;7.70;;
34978;SDS011;21185;50.978;13.720;2022-11-15T02:47:54;18.33;;;8.35;;
34978;SDS011;21185;50.978;13.720;2022-11-15T02:53:20;28.05;;;10.23;;
34978;SDS011;21185;50.978;13.720;2022-11-15T02:58:59;20.90;;;8.77;;
34978;SDS011;21185;50.978;13.720;2022-11-15T03:10:17;19.38;;;8.05;;
34978;SDS011;21185;50.978;13.720;2022-11-15T03:15:47;19.83;;;8.77;;
34978;SDS011;21185;50.978;13.720;2022-11-15T03:21:22;23.92;;;9.13;;
34978;SDS011;21185;50.978;13.720;2022-11-15T03:26:44;23.80;;;9.10;;
34978;SDS011;21185;50.978;13.720;2022-11-15T03:32:10;21.98;;;8.82;;
34978;SDS011;21185;50.978;13.720;2022-11-15T03:49:09;20.30;;;8.98;;
34978;SDS011;21185;50.978;13.720;2022-11-15T03:54:34;23.27;;;9.30;;
34978;SDS011;21185;50.978;13.720;2022-11-15T03:59:54;22.52;;;9.57;;
34978;SDS011;21185;50.978;13.720;2022-11-15T04:05:15;23.33;;;8.38;;
34978;SDS011;21185;50.978;13.720;2022-11-15T04:10:35;24.27;;;9.18;;
34978;SDS011;21185;50.978;13.720;2022-11-15T04:15:56;22.45;;;8.38;;
34978;SDS011;21185;50.978;13.720;2022-11-15T04:21:16;23.95;;;9.50;;
34978;SDS011;21185;50.978;13.720;2022-11-15T04:32:15;18.02;;;8.38;;
34978;SDS011;21185;50.978;13.720;2022-11-15T04:37:35;20.15;;;7.40;;
34978;SDS011;21185;50.978;13.720;2022-11-15T04:42:56;20.60;;;8.73;;
34978;SDS011;21185;50.978;13.720;2022-11-15T04:48:25;19.42;;;8.20;;
34978;SDS011;21185;50.978;13.720;2022-11-15T04:53:45;18.77;;;7.40;;
34978;SDS011;21185;50.978;13.720;2022-11-15T04:59:05;15.07;;;7.25;;
34978;SDS011;21185;50.978;13.720;2022-11-15T05:04:26;18.88;;;7.75;;
34978;SDS011;21185;50.978;13.720;2022-11-15T05:09:47;21.73;;;7.68;;
34978;SDS011;21185;50.978;13.720;2022-11-15T05:15:07;22.45;;;7.72;;
34978;SDS011;21185;50.978;13.720;2022-11-15T05:20:28;16.25;;;7.05;;
34978;SDS011;21185;50.978;13.720;2022-11-15T05:25:49;28.92;;;6.75;;
34978;SDS011;21185;50.978;13.720;2022-11-15T05:31:10;20.88;;;8.48;;
34978;SDS011;21185;50.978;13.720;2022-11-15T05:36:36;16.15;;;7.15;;
34978;SDS011;21185;50.978;13.720;2022-11-15T05:42:02;18.33;;;6.45;;
34978;SDS011;21185;50.978;13.720;2022-11-15T05:47:30;18.88;;;7.70;;
34978;SDS011;21185;50.978;13.720;2022-11-15T05:52:51;19.27;;;7.47;;
34978;SDS011;21185;50.978;13.720;2022-11-15T05:58:12;17.67;;;7.50;;
34978;SDS011;21185;50.978;13.720;2022-11-15T06:03:32;17.67;;;6.70;;
34978;SDS011;21185;50.978;13.720;2022-11-15T06:08:53;15.13;;;6.55;;
34978;SDS011;21185;50.978;13.720;2022-11-15T06:14:14;14.50;;;6.90;;
34978;SDS011;21185;50.978;13.720;2022-11-15T06:19:34;14.50;;;6.60;;
34978;SDS011;21185;50.978;13.720;2022-11-15T06:24:55;11.63;;;5.40;;
34978;SDS011;21185;50.978;13.720;2022-11-15T06:30:24;14.35;;;5.93;;
34978;SDS011;21185;50.978;13.720;2022-11-15T06:35:45;14.27;;;5.90;;
34978;SDS011;21185;50.978;13.720;2022-11-15T06:41:07;10.55;;;5.25;;
34978;SDS011;21185;50.978;13.720;2022-11-15T06:46:30;11.80;;;6.22;;
34978;SDS011;21185;50.978;13.720;2022-11-15T06:51:51;12.52;;;5.72;;
34978;SDS011;21185;50.978;13.720;2022-11-15T06:57:11;13.65;;;5.75;;
34978;SDS011;21185;50.978;13.720;2022-11-15T07:02:32;15.60;;;6.72;;
34978;SDS011;21185;50.978;13.720;2022-11-15T07:07:56;16.90;;;7.63;;
34978;SDS011;21185;50.978;13.720;2022-11-15T07:13:18;16.85;;;7.60;;
34978;SDS011;21185;50.978;13.720;2022-11-15T07:18:39;18.90;;;7.65;;
34978;SDS011;21185;50.978;13.720;2022-11-15T07:24:00;27.33;;;9.13;;
34978;SDS011;21185;50.978;13.720;2022-11-15T07:29:20;22.33;;;8.63;;
34978;SDS011;21185;50.978;13.720;2022-11-15T07:34:41;16.88;;;7.20;;
34978;SDS011;21185;50.978;13.720;2022-11-15T07:40:01;23.50;;;9.18;;
34978;SDS011;21185;50.978;13.720;2022-11-15T07:45:23;22.88;;;9.35;;
34978;SDS011;21185;50.978;13.720;2022-11-15T07:50:46;21.35;;;7.65;;
34978;SDS011;21185;50.978;13.720;2022-11-15T07:56:07;22.08;;;9.10;;
34978;SDS011;21185;50.978;13.720;2022-11-15T08:01:28;19.55;;;8.93;;
34978;SDS011;21185;50.978;13.720;2022-11-15T08:06:49;16.80;;;8.50;;
34978;SDS011;21185;50.978;13.720;2022-11-15T08:12:10;26.30;;;8.90;;
34978;SDS011;21185;50.978;13.720;2022-11-15T08:17:30;22.10;;;9.52;;
34978;SDS011;21185;50.978;13.720;2022-11-15T08:22:53;26.02;;;9.93;;
34978;SDS011;21185;50.978;13.720;2022-11-15T08:28:15;25.15;;;9.32;;
34978;SDS011;21185;50.978;13.720;2022-11-15T08:33:37;19.77;;;9.07;;
34978;SDS011;21185;50.978;13.720;2022-11-15T08:38:58;23.50;;;8.95;;
34978;SDS011;21185;50.978;13.720;2022-11-15T08:44:19;19.70;;;8.52;;
34978;SDS011;21185;50.978;13.720;2022-11-15T08:49:39;22.90;;;8.35;;
34978;SDS011;21185;50.978;13.720;2022-11-15T08:55:00;19.98;;;9.20;;
34978;SDS011;21185;50.978;13.720;2022-11-15T09:00:20;16.90;;;7.13;;
34978;SDS011;21185;50.978;13.720;2022-11-15T09:05:41;19.95;;;9.32;;
34978;SDS011;21185;50.978;13.720;2022-11-15T09:11:06;16.42;;;8.38;;
34978;SDS011;21185;50.978;13.720;2022-11-15T09:16:30;18.67;;;8.18;;
34978;SDS011;21185;50.978;13.720;2022-11-15T09:21:51;22.23;;;9.13;;
34978;SDS011;21185;50.978;13.720;2022-11-15T09:27:12;17.90;;;8.57;;
34978;SDS011;21185;50.978;13.720;2022-11-15T09:32:33;20.70;;;8.50;;
34978;SDS011;21185;50.978;13.720;2022-11-15T09:37:58;21.45;;;8.18;;
34978;SDS011;21185;50.978;13.720;2022-11-15T09:43:30;17.70;;;7.45;;
34978;SDS011;21185;50.978;13.720;2022-11-15T09:49:01;18.00;;;8.55;;
34978;SDS011;21185;50.978;13.720;2022-11-15T09:59:58;19.65;;;8.75;;
34978;SDS011;21185;50.978;13.720;2022-11-15T10:05:22;20.63;;;7.43;;
34978;SDS011;21185;50.978;13.720;2022-11-15T10:10:32;22.60;;;9.52;;
34978;SDS011;21185;50.978;13.720;2022-11-15T10:15:41;20.88;;;8.48;;
34978;SDS011;21185;50.978;13.720;2022-11-15T10:20:55;25.45;;;10.95;;
34978;SDS011;21185;50.978;13.720;2022-11-15T10:26:00;31.25;;;13.43;;
34978;SDS011;21185;50.978;13.720;2022-11-15T10:31:27;35.92;;;12.38;;
34978;SDS011;21185;50.978;13.720;2022-11-15T10:36:30;31.90;;;12.10;;
34978;SDS011;21185;50.978;13.720;2022-11-15T10:41:38;29.05;;;11.60;;
34978;SDS011;21185;50.978;13.720;2022-11-15T10:51:49;25.02;;;11.05;;
34978;SDS011;21185;50.978;13.720;2022-11-15T10:56:58;23.88;;;10.60;;
34978;SDS011;21185;50.978;13.720;2022-11-15T11:02:02;23.90;;;9.88;;
34978;SDS011;21185;50.978;13.720;2022-11-15T11:07:26;26.65;;;10.05;;
34978;SDS011;21185;50.978;13.720;2022-11-15T11:12:31;22.95;;;10.50;;
34978;SDS011;21185;50.978;13.720;2022-11-15T11:23:14;24.35;;;10.82;;
34978;SDS011;21185;50.978;13.720;2022-11-15T11:50:33;27.80;;;11.38;;
34978;SDS011;21185;50.978;13.720;2022-11-15T11:55:45;25.23;;;10.02;;
34978;SDS011;21185;50.978;13.720;2022-11-15T12:06:24;23.27;;;10.30;;
34978;SDS011;21185;50.978;13.720;2022-11-15T12:16:49;26.55;;;9.85;;
34978;SDS011;21185;50.978;13.720;2022-11-15T12:21:57;29.08;;;9.98;;
34978;SDS011;21185;50.978;13.720;2022-11-15T12:27:12;25.98;;;10.25;;
34978;SDS011;21185;50.978;13.720;2022-11-15T12:32:30;24.50;;;11.40;;
34978;SDS011;21185;50.978;13.720;2022-11-15T12:42:41;32.25;;;9.35;;
34978;SDS011;21185;50.978;13.720;2022-11-15T12:58:28;20.60;;;9.63;;
34978;SDS011;21185;50.978;13.720;2022-11-15T13:19:47;26.65;;;10.40;;
34978;SDS011;21185;50.978;13.720;2022-11-15T13:24:54;26.10;;;9.35;;
34978;SDS011;21185;50.978;13.720;2022-11-15T13:29:56;23.20;;;10.13;;
34978;SDS011;21185;50.978;13.720;2022-11-15T13:34:58;24.48;;;10.43;;
34978;SDS011;21185;50.978;13.720;2022-11-15T13:40:10;25.17;;;10.55;;
34978;SDS011;21185;50.978;13.720;2022-11-15T13:45:23;22.52;;;11.20;;
34978;SDS011;21185;50.978;13.720;2022-11-15T13:50:30;20.30;;;9.93;;
34978;SDS011;21185;50.978;13.720;2022-11-15T13:55:38;22.85;;;9.05;;
34978;SDS011;21185;50.978;13.720;2022-11-15T14:00:43;22.63;;;9.48;;
34978;SDS011;21185;50.978;13.720;2022-11-15T14:06:08;20.92;;;9.10;;
34978;SDS011;21185;50.978;13.720;2022-11-15T14:11:15;22.85;;;9.52;;
34978;SDS011;21185;50.978;13.720;2022-11-15T14:16:20;23.05;;;9.55;;
34978;SDS011;21185;50.978;13.720;2022-11-15T14:21:23;25.33;;;9.10;;
34978;SDS011;21185;50.978;13.720;2022-11-15T14:26:29;20.00;;;8.77;;
34978;SDS011;21185;50.978;13.720;2022-11-15T14:36:44;51.38;;;20.70;;
34978;SDS011;21185;50.978;13.720;2022-11-15T14:41:46;74.72;;;26.42;;
34978;SDS011;21185;50.978;13.720;2022-11-15T14:46:48;26.13;;;11.45;;
34978;SDS011;21185;50.978;13.720;2022-11-15T14:51:50;23.52;;;9.98;;
34978;SDS011;21185;50.978;13.720;2022-11-15T14:56:52;30.38;;;11.18;;
34978;SDS011;21185;50.978;13.720;2022-11-15T15:01:54;92.45;;;16.20;;
34978;SDS011;21185;50.978;13.720;2022-11-15T15:06:56;29.98;;;9.98;;
34978;SDS011;21185;50.978;13.720;2022-11-15T15:11:59;18.63;;;9.15;;
34978;SDS011;21185;50.978;13.720;2022-11-15T15:17:07;19.10;;;8.27;;
34978;SDS011;21185;50.978;13.720;2022-11-15T15:22:17;19.65;;;8.57;;
34978;SDS011;21185;50.978;13.720;2022-11-15T15:27:25;23.13;;;8.82;;
34978;SDS011;21185;50.978;13.720;2022-11-15T15:32:27;21.23;;;8.43;;
34978;SDS011;21185;50.978;13.720;2022-11-15T15:37:29;14.68;;;7.63;;
34978;SDS011;21185;50.978;13.720;2022-11-15T15:42:34;24.52;;;8.82;;
34978;SDS011;21185;50.978;13.720;2022-11-15T15:47:36;20.75;;;8.60;;
34978;SDS011;21185;50.978;13.720;2022-11-15T15:52:39;23.90;;;8.55;;
34978;SDS011;21185;50.978;13.720;2022-11-15T15:57:41;17.60;;;7.10;;
34978;SDS011;21185;50.978;13.720;2022-11-15T16:02:43;14.23;;;6.88;;
34978;SDS011;21185;50.978;13.720;2022-11-15T16:07:45;14.50;;;6.32;;
34978;SDS011;21185;50.978;13.720;2022-11-15T16:12:49;13.88;;;6.85;;
34978;SDS011;21185;50.978;13.720;2022-11-15T16:17:52;19.27;;;7.65;;
34978;SDS011;21185;50.978;13.720;2022-11-15T16:22:56;17.73;;;7.70;;
34978;SDS011;21185;50.978;13.720;2022-11-15T16:27:58;16.08;;;7.50;;
34978;SDS011;21185;50.978;13.720;2022-11-15T16:33:00;18.48;;;7.35;;
34978;SDS011;21185;50.978;13.720;2022-11-15T16:38:02;19.20;;;7.47;;
34978;SDS011;21185;50.978;13.720;2022-11-15T16:43:04;19.52;;;7.13;;
34978;SDS011;21185;50.978;13.720;2022-11-15T16:48:09;23.83;;;6.78;;
34978;SDS011;21185;50.978;13.720;2022-11-15T16:53:21;15.25;;;6.40;;
34978;SDS011;21185;50.978;13.720;2022-11-15T16:58:24;16.35;;;6.90;;
34978;SDS011;21185;50.978;13.720;2022-11-15T17:03:26;15.77;;;7.30;;
34978;SDS011;21185;50.978;13.720;2022-11-15T17:08:29;22.05;;;8.68;;
34978;SDS011;21185;50.978;13.720;2022-11-15T17:13:32;14.15;;;6.68;;
34978;SDS011;21185;50.978;13.720;2022-11-15T17:18:36;18.20;;;8.68;;
34978;SDS011;21185;50.978;13.720;2022-11-15T17:23:39;13.15;;;6.40;;
34978;SDS011;21185;50.978;13.720;2022-11-15T17:28:41;16.98;;;7.82;;
34978;SDS011;21185;50.978;13.720;2022-11-15T17:33:43;17.88;;;8.25;;
34978;SDS011;21185;50.978;13.720;2022-11-15T17:38:45;20.40;;;8.95;;
34978;SDS011;21185;50.978;13.720;2022-11-15T17:43:50;12.68;;;7.45;;
34978;SDS011;21185;50.978;13.720;2022-11-15T17:48:53;16.67;;;7.30;;
34978;SDS011;21185;50.978;13.720;2022-11-15T17:53:56;15.40;;;7.57;;
34978;SDS011;21185;50.978;13.720;2022-11-15T17:58:59;14.68;;;7.25;;
34978;SDS011;21185;50.978;13.720;2022-11-15T18:04:03;17.85;;;8.25;;
34978;SDS011;21185;50.978;13.720;2022-11-15T18:09:08;17.95;;;7.50;;
34978;SDS011;21185;50.978;13.720;2022-11-15T18:14:11;18.23;;;8.48;;
34978;SDS011;21185;50.978;13.720;2022-11-15T18:19:15;15.00;;;7.32;;
34978;SDS011;21185;50.978;13.720;2022-11-15T18:24:17;21.75;;;8.75;;
34978;SDS011;21185;50.978;13.720;2022-11-15T18:29:19;21.52;;;7.70;;
34978;SDS011;21185;50.978;13.720;2022-11-15T18:34:22;24.52;;;9.38;;
34978;SDS011;21185;50.978;13.720;2022-11-15T18:39:27;18.65;;;8.93;;
34978;SDS011;21185;50.978;13.720;2022-11-15T18:44:29;17.95;;;9.05;;
34978;SDS011;21185;50.978;13.720;2022-11-15T18:49:31;20.75;;;8.73;;
34978;SDS011;21185;50.978;13.720;2022-11-15T18:54:33;22.40;;;10.68;;
34978;SDS011;21185;50.978;13.720;2022-11-15T18:59:35;18.98;;;8.60;;
34978;SDS011;21185;50.978;13.720;2022-11-15T19:04:38;20.13;;;8.80;;
34978;SDS011;21185;50.978;13.720;2022-11-15T19:09:39;21.77;;;8.48;;
34978;SDS011;21185;50.978;13.720;2022-11-15T19:14:41;18.88;;;8.20;;
34978;SDS011;21185;50.978;13.720;2022-11-15T19:19:44;19.60;;;8.15;;
34978;SDS011;21185;50.978;13.720;2022-11-15T19:24:45;21.20;;;9.85;;
34978;SDS011;21185;50.978;13.720;2022-11-15T19:29:47;17.23;;;7.57;;
34978;SDS011;21185;50.978;13.720;2022-11-15T19:34:49;17.40;;;7.40;;
34978;SDS011;21185;50.978;13.720;2022-11-15T19:39:51;21.48;;;9.50;;
34978;SDS011;21185;50.978;13.720;2022-11-15T19:44:53;30.23;;;14.93;;
34978;SDS011;21185;50.978;13.720;2022-11-15T19:49:55;21.85;;;9.13;;
34978;SDS011;21185;50.978;13.720;2022-11-15T19:54:57;15.73;;;6.85;;
34978;SDS011;21185;50.978;13.720;2022-11-15T19:59:59;20.20;;;9.57;;
34978;SDS011;21185;50.978;13.720;2022-11-15T20:05:07;19.48;;;8.82;;
34978;SDS011;21185;50.978;13.720;2022-11-15T20:10:16;16.25;;;7.90;;
34978;SDS011;21185;50.978;13.720;2022-11-15T20:15:21;16.38;;;8.02;;
34978;SDS011;21185;50.978;13.720;2022-11-15T20:20:23;18.00;;;8.48;;
34978;SDS011;21185;50.978;13.720;2022-11-15T20:25:25;16.17;;;7.90;;
34978;SDS011;21185;50.978;13.720;2022-11-15T20:30:27;17.58;;;7.43;;
34978;SDS011;21185;50.978;13.720;2022-11-15T20:35:29;16.08;;;7.07;;
34978;SDS011;21185;50.978;13.720;2022-11-15T20:40:31;14.68;;;7.47;;
34978;SDS011;21185;50.978;13.720;2022-11-15T20:45:33;14.32;;;6.30;;
34978;SDS011;21185;50.978;13.720;2022-11-15T20:50:35;13.68;;;6.40;;
34978;SDS011;21185;50.978;13.720;2022-11-15T20:55:44;15.13;;;7.00;;
34978;SDS011;21185;50.978;13.720;2022-11-15T21:00:48;14.50;;;6.82;;
34978;SDS011;21185;50.978;13.720;2022-11-15T21:05:51;15.02;;;6.18;;
34978;SDS011;21185;50.978;13.720;2022-11-15T21:10:54;15.63;;;6.93;;
34978;SDS011;21185;50.978;13.720;2022-11-15T21:16:14;18.33;;;6.93;;
34978;SDS011;21185;50.978;13.720;2022-11-15T21:21:17;12.30;;;6.28;;
34978;SDS011;21185;50.978;13.720;2022-11-15T21:26:19;13.35;;;6.55;;
34978;SDS011;21185;50.978;13.720;2022-11-15T21:31:21;14.13;;;6.70;;
34978;SDS011;21185;50.978;13.720;2022-11-15T21:36:23;13.57;;;6.82;;
34978;SDS011;21185;50.978;13.720;2022-11-15T21:41:25;14.75;;;6.50;;
34978;SDS011;21185;50.978;13.720;2022-11-15T21:46:28;13.57;;;5.80;;
34978;SDS011;21185;50.978;13.720;2022-11-15T21:51:30;11.18;;;5.25;;
34978;SDS011;21185;50.978;13.720;2022-11-15T21:56:32;13.85;;;6.00;;
34978;SDS011;21185;50.978;13.720;2022-11-15T22:01:34;15.50;;;5.90;;
34978;SDS011;21185;50.978;13.720;2022-11-15T22:06:55;11.43;;;5.85;;
34978;SDS011;21185;50.978;13.720;2022-11-15T22:11:56;12.85;;;5.65;;
34978;SDS011;21185;50.978;13.720;2022-11-15T22:16:58;9.40;;;4.70;;
34978;SDS011;21185;50.978;13.720;2022-11-15T22:22:00;11.93;;;5.47;;
34978;SDS011;21185;50.978;13.720;2022-11-15T22:27:02;12.98;;;5.38;;
34978;SDS011;21185;50.978;13.720;2022-11-15T22:32:04;10.32;;;4.88;;
34978;SDS011;21185;50.978;13.720;2022-11-15T22:37:06;11.00;;;4.53;;
34978;SDS011;21185;50.978;13.720;2022-11-15T22:42:21;10.40;;;5.28;;
34978;SDS011;21185;50.978;13.720;2022-11-15T22:47:24;9.55;;;4.32;;
34978;SDS011;21185;50.978;13.720;2022-11-15T22:52:28;12.07;;;5.18;;
34978;SDS011;21185;50.978;13.720;2022-11-15T22:57:30;9.45;;;5.47;;
34978;SDS011;21185;50.978;13.720;2022-11-15T23:02:32;11.13;;;5.85;;
34978;SDS011;21185;50.978;13.720;2022-11-15T23:07:34;16.63;;;6.30;;
34978;SDS011;21185;50.978;13.720;2022-11-15T23:12:35;10.05;;;4.72;;
34978;SDS011;21185;50.978;13.720;2022-11-15T23:17:56;11.40;;;6.00;;
34978;SDS011;21185;50.978;13.720;2022-11-15T23:22:58;10.52;;;4.65;;
34978;SDS011;21185;50.978;13.720;2022-11-15T23:28:03;8.82;;;4.55;;
34978;SDS011;21185;50.978;13.720;2022-11-15T23:33:06;8.98;;;3.90;;
34978;SDS011;21185;50.978;13.720;2022-11-15T23:38:32;9.10;;;3.88;;
34978;SDS011;21185;50.978;13.720;2022-11-15T23:43:37;8.52;;;4.45;;
34978;SDS011;21185;50.978;13.720;2022-11-15T23:48:39;10.00;;;4.10;;
34978;SDS011;21185;50.978;13.720;2022-11-15T23:53:41;10.05;;;3.85;;
34978;SDS011;21185;50.978;13.720;2022-11-15T23:58:43;9.02;;;4.60;;
